sensor_id;sensor_type;location;lat;lon;timestamp;temperature;humidity
23371;DHT22;11858;51.056;3.712;2022-09-09T00:02:20;16.50;99.90
23371;DHT22;11858;51.056;3.712;2022-09-09T00:05:04;16.40;99.90
23371;DHT22;11858;51.056;3.712;2022-09-09T00:11:04;16.50;99.90
23371;DHT22;11858;51.056;3.712;2022-09-09T00:13:46;16.70;99.90
23371;DHT22;11858;51.056;3.712;2022-09-09T00:16:29;16.90;99.90
23371;DHT22;11858;51.056;3.712;2022-09-09T00:19:41;16.70;99.90
23371;DHT22;11858;51.056;3.712;2022-09-09T00:22:34;16.70;99.90
23371;DHT22;11858;51.056;3.712;2022-09-09T00:25:40;16.70;99.90
23371;DHT22;11858;51.056;3.712;2022-09-09T00:28:24;16.80;99.90
23371;DHT22;11858;51.056;3.712;2022-09-09T00:30:57;16.60;99.90
23371;DHT22;11858;51.056;3.712;2022-09-09T00:33:49;16.50;99.90
23371;DHT22;11858;51.056;3.712;2022-09-09T00:39:47;16.60;99.90
23371;DHT22;11858;51.056;3.712;2022-09-09T00:42:42;16.50;99.90
23371;DHT22;11858;51.056;3.712;2022-09-09T00:48:11;16.50;99.90
23371;DHT22;11858;51.056;3.712;2022-09-09T01:00:46;16.30;99.90
23371;DHT22;11858;51.056;3.712;2022-09-09T01:09:45;16.20;99.90
23371;DHT22;11858;51.056;3.712;2022-09-09T01:12:43;16.30;99.90
23371;DHT22;11858;51.056;3.712;2022-09-09T01:15:28;16.10;99.90
23371;DHT22;11858;51.056;3.712;2022-09-09T01:18:21;16.20;99.90
23371;DHT22;11858;51.056;3.712;2022-09-09T01:20:55;16.50;99.90
23371;DHT22;11858;51.056;3.712;2022-09-09T01:23:52;16.30;99.90
23371;DHT22;11858;51.056;3.712;2022-09-09T01:26:54;16.30;99.90
23371;DHT22;11858;51.056;3.712;2022-09-09T01:29:44;16.30;99.90
23371;DHT22;11858;51.056;3.712;2022-09-09T01:38:22;16.10;99.90
23371;DHT22;11858;51.056;3.712;2022-09-09T01:40:51;16.30;99.90
23371;DHT22;11858;51.056;3.712;2022-09-09T01:43:30;16.40;99.90
23371;DHT22;11858;51.056;3.712;2022-09-09T01:46:05;16.50;99.90
23371;DHT22;11858;51.056;3.712;2022-09-09T01:48:46;16.30;99.90
23371;DHT22;11858;51.056;3.712;2022-09-09T01:51:14;16.20;99.90
23371;DHT22;11858;51.056;3.712;2022-09-09T01:53:47;16.10;99.90
23371;DHT22;11858;51.056;3.712;2022-09-09T01:56:43;16.10;99.90
23371;DHT22;11858;51.056;3.712;2022-09-09T01:59:44;16.10;99.90
23371;DHT22;11858;51.056;3.712;2022-09-09T02:02:19;16.10;99.90
23371;DHT22;11858;51.056;3.712;2022-09-09T02:08:02;16.20;99.90
23371;DHT22;11858;51.056;3.712;2022-09-09T02:11:00;16.20;99.90
23371;DHT22;11858;51.056;3.712;2022-09-09T02:13:29;16.20;99.90
23371;DHT22;11858;51.056;3.712;2022-09-09T02:16:30;16.10;99.90
23371;DHT22;11858;51.056;3.712;2022-09-09T02:22:04;16.30;99.90
23371;DHT22;11858;51.056;3.712;2022-09-09T02:24:36;16.40;99.90
23371;DHT22;11858;51.056;3.712;2022-09-09T02:27:09;16.40;99.90
23371;DHT22;11858;51.056;3.712;2022-09-09T02:29:42;16.50;99.90
23371;DHT22;11858;51.056;3.712;2022-09-09T02:32:33;16.40;99.90
23371;DHT22;11858;51.056;3.712;2022-09-09T02:35:35;16.20;99.90
23371;DHT22;11858;51.056;3.712;2022-09-09T02:38:13;16.40;99.90
23371;DHT22;11858;51.056;3.712;2022-09-09T02:40:50;16.40;99.90
23371;DHT22;11858;51.056;3.712;2022-09-09T02:43:20;16.40;99.90
23371;DHT22;11858;51.056;3.712;2022-09-09T02:46:11;16.50;99.90
23371;DHT22;11858;51.056;3.712;2022-09-09T02:49:01;16.40;99.90
23371;DHT22;11858;51.056;3.712;2022-09-09T02:51:53;16.50;99.90
23371;DHT22;11858;51.056;3.712;2022-09-09T02:57:12;16.40;99.90
23371;DHT22;11858;51.056;3.712;2022-09-09T02:59:43;16.40;99.90
23371;DHT22;11858;51.056;3.712;2022-09-09T03:02:20;16.50;99.90
23371;DHT22;11858;51.056;3.712;2022-09-09T03:04:58;16.40;99.90
23371;DHT22;11858;51.056;3.712;2022-09-09T03:07:24;16.30;99.90
23371;DHT22;11858;51.056;3.712;2022-09-09T03:09:54;16.30;99.90
23371;DHT22;11858;51.056;3.712;2022-09-09T03:12:39;16.40;99.90
23371;DHT22;11858;51.056;3.712;2022-09-09T03:15:12;16.40;99.90
23371;DHT22;11858;51.056;3.712;2022-09-09T03:20:37;16.40;99.90
23371;DHT22;11858;51.056;3.712;2022-09-09T03:23:08;16.40;99.90
23371;DHT22;11858;51.056;3.712;2022-09-09T03:25:55;16.40;99.90
23371;DHT22;11858;51.056;3.712;2022-09-09T03:28:45;16.40;99.90
23371;DHT22;11858;51.056;3.712;2022-09-09T03:31:30;16.50;99.90
23371;DHT22;11858;51.056;3.712;2022-09-09T03:33:58;16.60;99.90
23371;DHT22;11858;51.056;3.712;2022-09-09T03:36:32;16.60;99.90
23371;DHT22;11858;51.056;3.712;2022-09-09T03:39:24;16.60;99.90
23371;DHT22;11858;51.056;3.712;2022-09-09T03:41:54;16.70;99.90
23371;DHT22;11858;51.056;3.712;2022-09-09T03:44:23;16.60;99.90
23371;DHT22;11858;51.056;3.712;2022-09-09T03:46:56;16.50;99.90
23371;DHT22;11858;51.056;3.712;2022-09-09T03:49:46;16.50;99.90
23371;DHT22;11858;51.056;3.712;2022-09-09T03:55:30;16.70;99.90
23371;DHT22;11858;51.056;3.712;2022-09-09T03:58:22;16.80;99.90
23371;DHT22;11858;51.056;3.712;2022-09-09T04:01:14;16.70;99.90
23371;DHT22;11858;51.056;3.712;2022-09-09T04:04:09;16.70;99.90
23371;DHT22;11858;51.056;3.712;2022-09-09T04:07:03;16.60;99.90
23371;DHT22;11858;51.056;3.712;2022-09-09T04:09:38;16.50;99.90
23371;DHT22;11858;51.056;3.712;2022-09-09T04:12:24;16.60;99.90
23371;DHT22;11858;51.056;3.712;2022-09-09T04:15:16;16.70;99.90
23371;DHT22;11858;51.056;3.712;2022-09-09T04:18:08;16.70;99.90
23371;DHT22;11858;51.056;3.712;2022-09-09T04:20:49;16.80;99.90
23371;DHT22;11858;51.056;3.712;2022-09-09T04:23:17;16.70;99.90
23371;DHT22;11858;51.056;3.712;2022-09-09T04:25:47;16.90;99.90
23371;DHT22;11858;51.056;3.712;2022-09-09T04:28:24;16.90;99.90
23371;DHT22;11858;51.056;3.712;2022-09-09T04:31:06;16.70;99.90
23371;DHT22;11858;51.056;3.712;2022-09-09T04:34:05;16.60;99.90
23371;DHT22;11858;51.056;3.712;2022-09-09T04:36:58;16.70;99.90
23371;DHT22;11858;51.056;3.712;2022-09-09T04:39:33;16.80;99.90
23371;DHT22;11858;51.056;3.712;2022-09-09T04:42:17;16.80;99.90
23371;DHT22;11858;51.056;3.712;2022-09-09T04:45:00;16.80;99.90
23371;DHT22;11858;51.056;3.712;2022-09-09T04:47:50;16.80;99.90
23371;DHT22;11858;51.056;3.712;2022-09-09T04:50:27;16.80;99.90
23371;DHT22;11858;51.056;3.712;2022-09-09T04:53:16;16.70;99.90
23371;DHT22;11858;51.056;3.712;2022-09-09T04:58:49;16.60;99.90
23371;DHT22;11858;51.056;3.712;2022-09-09T05:01:37;16.50;99.90
23371;DHT22;11858;51.056;3.712;2022-09-09T05:04:22;16.60;99.90
23371;DHT22;11858;51.056;3.712;2022-09-09T05:07:24;16.60;99.90
23371;DHT22;11858;51.056;3.712;2022-09-09T05:10:00;16.70;99.90
23371;DHT22;11858;51.056;3.712;2022-09-09T05:13:00;16.70;99.90
23371;DHT22;11858;51.056;3.712;2022-09-09T05:15:53;16.70;99.90
23371;DHT22;11858;51.056;3.712;2022-09-09T05:18:30;16.80;99.90
23371;DHT22;11858;51.056;3.712;2022-09-09T05:21:18;16.70;99.90
23371;DHT22;11858;51.056;3.712;2022-09-09T05:23:45;16.60;99.90
23371;DHT22;11858;51.056;3.712;2022-09-09T05:26:31;16.50;99.90
23371;DHT22;11858;51.056;3.712;2022-09-09T05:29:06;16.50;99.90
23371;DHT22;11858;51.056;3.712;2022-09-09T05:31:35;16.40;99.90
23371;DHT22;11858;51.056;3.712;2022-09-09T05:34:08;16.30;99.90
23371;DHT22;11858;51.056;3.712;2022-09-09T05:36:36;16.30;99.90
23371;DHT22;11858;51.056;3.712;2022-09-09T05:39:20;16.20;99.90
23371;DHT22;11858;51.056;3.712;2022-09-09T05:41:49;16.20;99.90
23371;DHT22;11858;51.056;3.712;2022-09-09T05:44:19;16.30;99.90
23371;DHT22;11858;51.056;3.712;2022-09-09T05:46:49;16.20;99.90
23371;DHT22;11858;51.056;3.712;2022-09-09T05:49:15;16.20;99.90
23371;DHT22;11858;51.056;3.712;2022-09-09T05:51:41;16.30;99.90
23371;DHT22;11858;51.056;3.712;2022-09-09T05:54:08;16.40;99.90
23371;DHT22;11858;51.056;3.712;2022-09-09T05:56:34;16.50;99.90
23371;DHT22;11858;51.056;3.712;2022-09-09T05:59:00;16.60;99.90
23371;DHT22;11858;51.056;3.712;2022-09-09T06:01:31;16.60;99.90
23371;DHT22;11858;51.056;3.712;2022-09-09T06:04:02;16.60;99.90
23371;DHT22;11858;51.056;3.712;2022-09-09T06:06:35;16.60;99.90
23371;DHT22;11858;51.056;3.712;2022-09-09T06:09:03;16.60;99.90
23371;DHT22;11858;51.056;3.712;2022-09-09T06:11:34;16.30;99.90
23371;DHT22;11858;51.056;3.712;2022-09-09T06:14:02;16.10;99.90
23371;DHT22;11858;51.056;3.712;2022-09-09T06:16:29;15.90;99.90
23371;DHT22;11858;51.056;3.712;2022-09-09T06:18:59;15.80;99.90
23371;DHT22;11858;51.056;3.712;2022-09-09T06:21:30;15.80;99.90
23371;DHT22;11858;51.056;3.712;2022-09-09T06:23:58;15.80;99.90
23371;DHT22;11858;51.056;3.712;2022-09-09T06:26:26;15.80;99.90
23371;DHT22;11858;51.056;3.712;2022-09-09T06:28:53;15.70;99.90
23371;DHT22;11858;51.056;3.712;2022-09-09T06:31:22;15.70;99.90
23371;DHT22;11858;51.056;3.712;2022-09-09T06:33:49;15.70;99.90
23371;DHT22;11858;51.056;3.712;2022-09-09T06:36:18;15.70;99.90
23371;DHT22;11858;51.056;3.712;2022-09-09T06:38:45;15.80;99.90
23371;DHT22;11858;51.056;3.712;2022-09-09T06:41:12;15.80;99.90
23371;DHT22;11858;51.056;3.712;2022-09-09T06:43:39;15.80;99.90
23371;DHT22;11858;51.056;3.712;2022-09-09T06:46:16;16.00;99.90
23371;DHT22;11858;51.056;3.712;2022-09-09T06:48:44;16.00;99.90
23371;DHT22;11858;51.056;3.712;2022-09-09T06:53:42;16.00;99.90
23371;DHT22;11858;51.056;3.712;2022-09-09T06:56:37;16.10;99.90
23371;DHT22;11858;51.056;3.712;2022-09-09T06:59:06;16.10;99.90
23371;DHT22;11858;51.056;3.712;2022-09-09T07:01:38;16.20;99.90
23371;DHT22;11858;51.056;3.712;2022-09-09T07:04:09;16.40;99.90
23371;DHT22;11858;51.056;3.712;2022-09-09T07:06:44;16.40;99.90
23371;DHT22;11858;51.056;3.712;2022-09-09T07:09:13;16.60;99.90
23371;DHT22;11858;51.056;3.712;2022-09-09T07:11:47;16.60;99.90
23371;DHT22;11858;51.056;3.712;2022-09-09T07:14:13;16.60;99.90
23371;DHT22;11858;51.056;3.712;2022-09-09T07:16:44;16.60;99.90
23371;DHT22;11858;51.056;3.712;2022-09-09T07:19:11;16.60;99.90
23371;DHT22;11858;51.056;3.712;2022-09-09T07:21:38;16.90;99.90
23371;DHT22;11858;51.056;3.712;2022-09-09T07:24:06;16.90;99.90
23371;DHT22;11858;51.056;3.712;2022-09-09T07:26:33;17.10;99.90
23371;DHT22;11858;51.056;3.712;2022-09-09T07:28:59;17.30;99.90
23371;DHT22;11858;51.056;3.712;2022-09-09T07:31:30;17.20;99.90
23371;DHT22;11858;51.056;3.712;2022-09-09T07:33:57;17.10;99.90
23371;DHT22;11858;51.056;3.712;2022-09-09T07:36:31;17.30;99.90
23371;DHT22;11858;51.056;3.712;2022-09-09T07:39:04;17.40;99.90
23371;DHT22;11858;51.056;3.712;2022-09-09T07:41:42;17.50;99.90
23371;DHT22;11858;51.056;3.712;2022-09-09T07:44:16;17.50;99.90
23371;DHT22;11858;51.056;3.712;2022-09-09T07:46:43;17.40;99.90
23371;DHT22;11858;51.056;3.712;2022-09-09T07:49:11;17.30;99.90
23371;DHT22;11858;51.056;3.712;2022-09-09T07:51:42;17.40;99.90
23371;DHT22;11858;51.056;3.712;2022-09-09T07:54:11;17.50;99.90
23371;DHT22;11858;51.056;3.712;2022-09-09T07:56:38;17.50;99.90
23371;DHT22;11858;51.056;3.712;2022-09-09T07:59:04;17.40;99.90
23371;DHT22;11858;51.056;3.712;2022-09-09T08:01:40;17.40;99.90
23371;DHT22;11858;51.056;3.712;2022-09-09T08:04:09;17.10;99.90
23371;DHT22;11858;51.056;3.712;2022-09-09T08:06:38;17.00;99.90
23371;DHT22;11858;51.056;3.712;2022-09-09T08:09:05;16.90;99.90
23371;DHT22;11858;51.056;3.712;2022-09-09T08:11:32;16.70;99.90
23371;DHT22;11858;51.056;3.712;2022-09-09T08:13:58;16.60;99.90
23371;DHT22;11858;51.056;3.712;2022-09-09T08:16:36;16.60;99.90
23371;DHT22;11858;51.056;3.712;2022-09-09T08:19:02;16.50;99.90
23371;DHT22;11858;51.056;3.712;2022-09-09T08:21:30;16.40;99.90
23371;DHT22;11858;51.056;3.712;2022-09-09T08:23:58;16.40;99.90
23371;DHT22;11858;51.056;3.712;2022-09-09T08:26:29;16.40;99.90
23371;DHT22;11858;51.056;3.712;2022-09-09T08:28:55;16.50;99.90
23371;DHT22;11858;51.056;3.712;2022-09-09T08:31:27;16.40;99.90
23371;DHT22;11858;51.056;3.712;2022-09-09T08:33:57;16.50;99.90
23371;DHT22;11858;51.056;3.712;2022-09-09T08:36:26;16.60;99.90
23371;DHT22;11858;51.056;3.712;2022-09-09T08:38:54;16.60;99.90
23371;DHT22;11858;51.056;3.712;2022-09-09T08:41:40;16.70;99.90
23371;DHT22;11858;51.056;3.712;2022-09-09T08:44:25;16.90;99.90
23371;DHT22;11858;51.056;3.712;2022-09-09T08:50:17;16.70;99.90
23371;DHT22;11858;51.056;3.712;2022-09-09T08:55:52;17.00;99.90
23371;DHT22;11858;51.056;3.712;2022-09-09T08:58:22;17.10;99.90
23371;DHT22;11858;51.056;3.712;2022-09-09T09:03:56;17.30;99.90
23371;DHT22;11858;51.056;3.712;2022-09-09T09:12:02;17.40;99.90
23371;DHT22;11858;51.056;3.712;2022-09-09T09:14:34;17.10;99.90
23371;DHT22;11858;51.056;3.712;2022-09-09T09:17:03;17.30;99.90
23371;DHT22;11858;51.056;3.712;2022-09-09T09:19:33;17.20;99.90
23371;DHT22;11858;51.056;3.712;2022-09-09T09:27:14;18.00;99.90
23371;DHT22;11858;51.056;3.712;2022-09-09T09:29:42;18.10;99.90
23371;DHT22;11858;51.056;3.712;2022-09-09T09:32:13;18.50;99.90
23371;DHT22;11858;51.056;3.712;2022-09-09T09:34:40;18.80;99.90
23371;DHT22;11858;51.056;3.712;2022-09-09T09:37:15;19.10;99.90
23371;DHT22;11858;51.056;3.712;2022-09-09T09:39:45;19.10;99.90
23371;DHT22;11858;51.056;3.712;2022-09-09T09:42:17;19.10;99.90
23371;DHT22;11858;51.056;3.712;2022-09-09T09:44:43;18.90;99.90
23371;DHT22;11858;51.056;3.712;2022-09-09T09:47:13;18.80;99.90
23371;DHT22;11858;51.056;3.712;2022-09-09T09:49:50;18.60;99.90
23371;DHT22;11858;51.056;3.712;2022-09-09T09:52:20;18.80;99.90
23371;DHT22;11858;51.056;3.712;2022-09-09T09:54:46;18.70;99.90
23371;DHT22;11858;51.056;3.712;2022-09-09T09:57:14;18.70;99.90
23371;DHT22;11858;51.056;3.712;2022-09-09T09:59:42;18.70;99.90
23371;DHT22;11858;51.056;3.712;2022-09-09T10:02:22;18.60;99.90
23371;DHT22;11858;51.056;3.712;2022-09-09T10:05:15;18.80;99.90
23371;DHT22;11858;51.056;3.712;2022-09-09T10:07:42;18.80;99.90
23371;DHT22;11858;51.056;3.712;2022-09-09T10:10:21;18.60;99.90
23371;DHT22;11858;51.056;3.712;2022-09-09T10:19:34;18.80;99.90
23371;DHT22;11858;51.056;3.712;2022-09-09T10:22:26;19.00;99.90
23371;DHT22;11858;51.056;3.712;2022-09-09T10:27:56;19.10;99.90
23371;DHT22;11858;51.056;3.712;2022-09-09T10:36:24;19.00;99.90
23371;DHT22;11858;51.056;3.712;2022-09-09T10:39:36;19.20;99.90
23371;DHT22;11858;51.056;3.712;2022-09-09T10:42:09;19.50;99.90
23371;DHT22;11858;51.056;3.712;2022-09-09T10:51:27;19.90;99.90
23371;DHT22;11858;51.056;3.712;2022-09-09T10:56:44;19.80;99.90
23371;DHT22;11858;51.056;3.712;2022-09-09T10:59:26;19.90;99.90
23371;DHT22;11858;51.056;3.712;2022-09-09T11:02:33;19.80;99.90
23371;DHT22;11858;51.056;3.712;2022-09-09T11:04:58;19.80;99.90
23371;DHT22;11858;51.056;3.712;2022-09-09T11:10:25;19.70;99.90
23371;DHT22;11858;51.056;3.712;2022-09-09T11:12:59;20.30;99.90
23371;DHT22;11858;51.056;3.712;2022-09-09T11:15:41;20.80;99.90
23371;DHT22;11858;51.056;3.712;2022-09-09T11:18:20;21.70;99.90
23371;DHT22;11858;51.056;3.712;2022-09-09T11:21:00;22.70;99.90
23371;DHT22;11858;51.056;3.712;2022-09-09T11:26:00;23.90;99.90
23371;DHT22;11858;51.056;3.712;2022-09-09T11:28:56;23.20;99.90
23371;DHT22;11858;51.056;3.712;2022-09-09T11:31:51;23.20;99.90
23371;DHT22;11858;51.056;3.712;2022-09-09T11:34:54;22.70;99.90
23371;DHT22;11858;51.056;3.712;2022-09-09T11:40:31;23.70;99.90
23371;DHT22;11858;51.056;3.712;2022-09-09T11:43:15;24.00;99.90
23371;DHT22;11858;51.056;3.712;2022-09-09T11:45:53;23.00;99.90
23371;DHT22;11858;51.056;3.712;2022-09-09T11:48:34;22.70;99.90
23371;DHT22;11858;51.056;3.712;2022-09-09T11:53:33;21.60;99.90
23371;DHT22;11858;51.056;3.712;2022-09-09T11:56:06;21.30;99.90
23371;DHT22;11858;51.056;3.712;2022-09-09T11:58:41;21.30;99.90
23371;DHT22;11858;51.056;3.712;2022-09-09T12:01:25;21.30;99.90
23371;DHT22;11858;51.056;3.712;2022-09-09T12:04:01;21.40;99.90
23371;DHT22;11858;51.056;3.712;2022-09-09T12:06:32;21.40;99.90
23371;DHT22;11858;51.056;3.712;2022-09-09T12:09:16;22.70;99.90
23371;DHT22;11858;51.056;3.712;2022-09-09T12:11:43;23.60;99.90
23371;DHT22;11858;51.056;3.712;2022-09-09T12:14:34;23.60;99.90
23371;DHT22;11858;51.056;3.712;2022-09-09T12:17:19;22.90;99.90
23371;DHT22;11858;51.056;3.712;2022-09-09T12:19:46;23.10;99.90
23371;DHT22;11858;51.056;3.712;2022-09-09T12:25:18;22.90;99.90
23371;DHT22;11858;51.056;3.712;2022-09-09T12:33:16;23.50;99.90
23371;DHT22;11858;51.056;3.712;2022-09-09T12:35:44;23.00;99.90
23371;DHT22;11858;51.056;3.712;2022-09-09T12:38:18;22.70;99.90
23371;DHT22;11858;51.056;3.712;2022-09-09T12:40:55;22.80;99.90
23371;DHT22;11858;51.056;3.712;2022-09-09T12:43:23;22.80;99.90
23371;DHT22;11858;51.056;3.712;2022-09-09T12:45:56;22.80;99.90
23371;DHT22;11858;51.056;3.712;2022-09-09T12:48:39;22.70;99.90
23371;DHT22;11858;51.056;3.712;2022-09-09T12:51:31;22.10;99.90
23371;DHT22;11858;51.056;3.712;2022-09-09T12:53:59;21.90;99.90
23371;DHT22;11858;51.056;3.712;2022-09-09T12:56:28;21.90;99.90
23371;DHT22;11858;51.056;3.712;2022-09-09T12:58:56;21.70;99.90
23371;DHT22;11858;51.056;3.712;2022-09-09T13:01:31;21.40;99.90
23371;DHT22;11858;51.056;3.712;2022-09-09T13:03:58;20.90;99.90
23371;DHT22;11858;51.056;3.712;2022-09-09T13:06:29;20.70;99.90
23371;DHT22;11858;51.056;3.712;2022-09-09T13:08:59;20.80;99.90
23371;DHT22;11858;51.056;3.712;2022-09-09T13:13:55;20.60;99.90
23371;DHT22;11858;51.056;3.712;2022-09-09T13:16:26;20.30;99.90
23371;DHT22;11858;51.056;3.712;2022-09-09T13:18:56;20.40;99.90
23371;DHT22;11858;51.056;3.712;2022-09-09T13:21:34;21.30;99.90
23371;DHT22;11858;51.056;3.712;2022-09-09T13:24:01;22.90;99.90
23371;DHT22;11858;51.056;3.712;2022-09-09T13:26:30;24.40;99.90
23371;DHT22;11858;51.056;3.712;2022-09-09T13:29:14;25.40;99.90
23371;DHT22;11858;51.056;3.712;2022-09-09T13:31:43;25.60;99.90
23371;DHT22;11858;51.056;3.712;2022-09-09T13:34:13;26.40;99.90
23371;DHT22;11858;51.056;3.712;2022-09-09T13:36:40;27.30;99.90
23371;DHT22;11858;51.056;3.712;2022-09-09T13:39:15;27.40;99.90
23371;DHT22;11858;51.056;3.712;2022-09-09T13:41:44;27.00;99.90
23371;DHT22;11858;51.056;3.712;2022-09-09T13:47:15;25.60;99.90
23371;DHT22;11858;51.056;3.712;2022-09-09T13:49:43;24.70;99.90
23371;DHT22;11858;51.056;3.712;2022-09-09T13:52:16;23.20;99.90
23371;DHT22;11858;51.056;3.712;2022-09-09T13:54:49;22.50;99.90
23371;DHT22;11858;51.056;3.712;2022-09-09T13:57:16;22.80;99.90
23371;DHT22;11858;51.056;3.712;2022-09-09T13:59:44;22.30;99.90
23371;DHT22;11858;51.056;3.712;2022-09-09T14:02:10;22.50;99.90
23371;DHT22;11858;51.056;3.712;2022-09-09T14:04:36;22.50;99.90
23371;DHT22;11858;51.056;3.712;2022-09-09T14:07:03;22.40;99.90
23371;DHT22;11858;51.056;3.712;2022-09-09T14:09:29;22.30;99.90
23371;DHT22;11858;51.056;3.712;2022-09-09T14:11:54;21.90;99.90
23371;DHT22;11858;51.056;3.712;2022-09-09T14:14:21;22.10;99.90
23371;DHT22;11858;51.056;3.712;2022-09-09T14:16:46;22.30;99.90
23371;DHT22;11858;51.056;3.712;2022-09-09T14:19:13;22.50;99.90
23371;DHT22;11858;51.056;3.712;2022-09-09T14:21:38;22.10;99.90
23371;DHT22;11858;51.056;3.712;2022-09-09T14:24:05;22.00;99.90
23371;DHT22;11858;51.056;3.712;2022-09-09T14:26:31;21.90;99.90
23371;DHT22;11858;51.056;3.712;2022-09-09T14:28:57;21.80;99.90
23371;DHT22;11858;51.056;3.712;2022-09-09T14:31:24;22.20;99.90
23371;DHT22;11858;51.056;3.712;2022-09-09T14:33:50;22.30;99.90
23371;DHT22;11858;51.056;3.712;2022-09-09T14:36:16;23.80;99.90
23371;DHT22;11858;51.056;3.712;2022-09-09T14:38:42;26.30;99.90
23371;DHT22;11858;51.056;3.712;2022-09-09T14:41:14;28.30;99.90
23371;DHT22;11858;51.056;3.712;2022-09-09T14:43:42;29.00;99.90
23371;DHT22;11858;51.056;3.712;2022-09-09T14:46:10;29.00;99.90
23371;DHT22;11858;51.056;3.712;2022-09-09T14:48:36;28.90;99.90
23371;DHT22;11858;51.056;3.712;2022-09-09T14:51:14;28.10;99.90
23371;DHT22;11858;51.056;3.712;2022-09-09T14:53:41;27.40;99.90
23371;DHT22;11858;51.056;3.712;2022-09-09T14:58:35;26.60;99.90
23371;DHT22;11858;51.056;3.712;2022-09-09T15:01:13;27.50;99.90
23371;DHT22;11858;51.056;3.712;2022-09-09T15:03:40;27.60;99.90
23371;DHT22;11858;51.056;3.712;2022-09-09T15:06:10;27.60;99.90
23371;DHT22;11858;51.056;3.712;2022-09-09T15:08:38;27.70;99.90
23371;DHT22;11858;51.056;3.712;2022-09-09T15:11:06;27.80;99.90
23371;DHT22;11858;51.056;3.712;2022-09-09T15:13:36;27.90;99.90
23371;DHT22;11858;51.056;3.712;2022-09-09T15:16:08;27.80;99.90
23371;DHT22;11858;51.056;3.712;2022-09-09T15:18:34;27.20;99.90
23371;DHT22;11858;51.056;3.712;2022-09-09T15:21:03;27.00;99.90
23371;DHT22;11858;51.056;3.712;2022-09-09T15:23:34;26.90;99.90
23371;DHT22;11858;51.056;3.712;2022-09-09T15:26:00;26.70;99.90
23371;DHT22;11858;51.056;3.712;2022-09-09T15:28:26;25.80;99.90
23371;DHT22;11858;51.056;3.712;2022-09-09T15:30:53;25.90;99.90
23371;DHT22;11858;51.056;3.712;2022-09-09T15:33:21;25.90;99.90
23371;DHT22;11858;51.056;3.712;2022-09-09T15:35:47;25.40;99.90
23371;DHT22;11858;51.056;3.712;2022-09-09T15:38:15;24.50;99.90
23371;DHT22;11858;51.056;3.712;2022-09-09T15:40:43;23.40;99.90
23371;DHT22;11858;51.056;3.712;2022-09-09T15:43:09;22.70;99.90
23371;DHT22;11858;51.056;3.712;2022-09-09T15:45:36;22.30;99.90
23371;DHT22;11858;51.056;3.712;2022-09-09T15:48:03;22.30;99.90
23371;DHT22;11858;51.056;3.712;2022-09-09T15:50:29;22.40;99.90
23371;DHT22;11858;51.056;3.712;2022-09-09T15:52:59;22.40;99.90
23371;DHT22;11858;51.056;3.712;2022-09-09T15:55:25;22.40;99.90
23371;DHT22;11858;51.056;3.712;2022-09-09T15:57:51;22.30;99.90
23371;DHT22;11858;51.056;3.712;2022-09-09T16:00:18;22.20;99.90
23371;DHT22;11858;51.056;3.712;2022-09-09T16:02:48;22.40;99.90
23371;DHT22;11858;51.056;3.712;2022-09-09T16:05:14;22.10;99.90
23371;DHT22;11858;51.056;3.712;2022-09-09T16:07:40;22.20;99.90
23371;DHT22;11858;51.056;3.712;2022-09-09T16:10:08;22.10;99.90
23371;DHT22;11858;51.056;3.712;2022-09-09T16:12:34;22.00;99.90
23371;DHT22;11858;51.056;3.712;2022-09-09T16:15:00;22.00;99.90
23371;DHT22;11858;51.056;3.712;2022-09-09T16:17:26;22.30;99.90
23371;DHT22;11858;51.056;3.712;2022-09-09T16:19:53;23.10;99.90
23371;DHT22;11858;51.056;3.712;2022-09-09T16:22:20;23.90;99.90
23371;DHT22;11858;51.056;3.712;2022-09-09T16:24:46;24.70;99.90
23371;DHT22;11858;51.056;3.712;2022-09-09T16:27:11;24.70;99.90
23371;DHT22;11858;51.056;3.712;2022-09-09T16:29:37;23.80;99.90
23371;DHT22;11858;51.056;3.712;2022-09-09T16:32:06;23.50;99.90
23371;DHT22;11858;51.056;3.712;2022-09-09T16:34:35;23.50;99.90
23371;DHT22;11858;51.056;3.712;2022-09-09T16:37:01;22.90;99.90
23371;DHT22;11858;51.056;3.712;2022-09-09T16:39:27;22.90;99.90
23371;DHT22;11858;51.056;3.712;2022-09-09T16:41:53;22.90;99.90
23371;DHT22;11858;51.056;3.712;2022-09-09T16:44:19;23.30;99.90
23371;DHT22;11858;51.056;3.712;2022-09-09T16:46:47;23.60;99.90
23371;DHT22;11858;51.056;3.712;2022-09-09T16:49:14;23.00;99.90
23371;DHT22;11858;51.056;3.712;2022-09-09T16:51:43;22.70;99.90
23371;DHT22;11858;51.056;3.712;2022-09-09T16:54:10;22.00;99.90
23371;DHT22;11858;51.056;3.712;2022-09-09T16:56:38;21.70;99.90
23371;DHT22;11858;51.056;3.712;2022-09-09T16:59:12;21.80;99.90
23371;DHT22;11858;51.056;3.712;2022-09-09T17:01:40;21.60;99.90
23371;DHT22;11858;51.056;3.712;2022-09-09T17:04:09;21.50;99.90
23371;DHT22;11858;51.056;3.712;2022-09-09T17:06:35;21.40;99.90
23371;DHT22;11858;51.056;3.712;2022-09-09T17:09:05;20.80;99.90
23371;DHT22;11858;51.056;3.712;2022-09-09T17:11:31;20.00;99.90
23371;DHT22;11858;51.056;3.712;2022-09-09T17:13:57;19.40;99.90
23371;DHT22;11858;51.056;3.712;2022-09-09T17:16:25;18.90;99.90
23371;DHT22;11858;51.056;3.712;2022-09-09T17:18:53;18.70;99.90
23371;DHT22;11858;51.056;3.712;2022-09-09T17:21:23;18.40;99.90
23371;DHT22;11858;51.056;3.712;2022-09-09T17:23:51;18.10;99.90
23371;DHT22;11858;51.056;3.712;2022-09-09T17:26:19;18.40;99.90
23371;DHT22;11858;51.056;3.712;2022-09-09T17:28:45;18.10;99.90
23371;DHT22;11858;51.056;3.712;2022-09-09T17:31:19;18.00;99.90
23371;DHT22;11858;51.056;3.712;2022-09-09T17:33:47;18.30;99.90
23371;DHT22;11858;51.056;3.712;2022-09-09T17:36:19;18.40;99.90
23371;DHT22;11858;51.056;3.712;2022-09-09T17:38:47;18.20;99.90
23371;DHT22;11858;51.056;3.712;2022-09-09T17:41:25;18.10;99.90
23371;DHT22;11858;51.056;3.712;2022-09-09T17:43:53;18.00;99.90
23371;DHT22;11858;51.056;3.712;2022-09-09T17:46:25;17.90;99.90
23371;DHT22;11858;51.056;3.712;2022-09-09T17:48:55;17.70;99.90
23371;DHT22;11858;51.056;3.712;2022-09-09T17:51:23;17.90;99.90
23371;DHT22;11858;51.056;3.712;2022-09-09T17:53:53;18.10;99.90
23371;DHT22;11858;51.056;3.712;2022-09-09T17:56:22;17.70;99.90
23371;DHT22;11858;51.056;3.712;2022-09-09T17:58:51;17.70;99.90
23371;DHT22;11858;51.056;3.712;2022-09-09T18:01:25;17.80;99.90
23371;DHT22;11858;51.056;3.712;2022-09-09T18:03:56;17.80;99.90
23371;DHT22;11858;51.056;3.712;2022-09-09T18:06:26;17.90;99.90
23371;DHT22;11858;51.056;3.712;2022-09-09T18:08:56;17.80;99.90
23371;DHT22;11858;51.056;3.712;2022-09-09T18:11:25;17.70;99.90
23371;DHT22;11858;51.056;3.712;2022-09-09T18:13:54;17.60;99.90
23371;DHT22;11858;51.056;3.712;2022-09-09T18:16:22;17.40;99.90
23371;DHT22;11858;51.056;3.712;2022-09-09T18:18:49;17.40;99.90